sensor_id;sensor_type;location;lat;lon;timestamp;P1;durP1;ratioP1;P2;durP2;ratioP2
37411;SDS011;23278;52.110;6.050;2022-08-03T00:01:57;1.83;;;0.40;;
37411;SDS011;23278;52.110;6.050;2022-08-03T00:04:23;1.17;;;0.50;;
37411;SDS011;23278;52.110;6.050;2022-08-03T00:06:49;1.83;;;0.43;;
37411;SDS011;23278;52.110;6.050;2022-08-03T00:09:15;1.60;;;0.40;;
37411;SDS011;23278;52.110;6.050;2022-08-03T00:11:41;2.35;;;1.05;;
37411;SDS011;23278;52.110;6.050;2022-08-03T00:14:07;1.80;;;0.50;;
37411;SDS011;23278;52.110;6.050;2022-08-03T00:16:34;8.70;;;0.80;;
37411;SDS011;23278;52.110;6.050;2022-08-03T00:19:00;1.08;;;0.40;;
37411;SDS011;23278;52.110;6.050;2022-08-03T00:21:26;1.30;;;0.50;;
37411;SDS011;23278;52.110;6.050;2022-08-03T00:23:53;1.35;;;0.40;;
37411;SDS011;23278;52.110;6.050;2022-08-03T00:26:19;2.65;;;0.30;;
37411;SDS011;23278;52.110;6.050;2022-08-03T00:28:46;3.08;;;0.50;;
37411;SDS011;23278;52.110;6.050;2022-08-03T00:31:12;2.22;;;0.50;;
37411;SDS011;23278;52.110;6.050;2022-08-03T00:33:38;2.05;;;0.40;;
37411;SDS011;23278;52.110;6.050;2022-08-03T00:36:04;1.17;;;0.40;;
37411;SDS011;23278;52.110;6.050;2022-08-03T00:38:30;1.20;;;0.52;;
37411;SDS011;23278;52.110;6.050;2022-08-03T00:40:56;3.10;;;0.40;;
37411;SDS011;23278;52.110;6.050;2022-08-03T00:43:24;2.95;;;0.50;;
37411;SDS011;23278;52.110;6.050;2022-08-03T00:45:51;1.65;;;0.63;;
37411;SDS011;23278;52.110;6.050;2022-08-03T00:48:18;1.05;;;0.50;;
37411;SDS011;23278;52.110;6.050;2022-08-03T00:50:45;3.88;;;0.70;;
37411;SDS011;23278;52.110;6.050;2022-08-03T00:53:12;1.38;;;0.40;;
37411;SDS011;23278;52.110;6.050;2022-08-03T00:55:39;2.88;;;0.40;;
37411;SDS011;23278;52.110;6.050;2022-08-03T00:58:06;2.65;;;0.68;;
37411;SDS011;23278;52.110;6.050;2022-08-03T01:00:34;1.17;;;0.40;;
37411;SDS011;23278;52.110;6.050;2022-08-03T01:03:03;4.28;;;0.95;;
37411;SDS011;23278;52.110;6.050;2022-08-03T01:05:36;3.88;;;0.63;;
37411;SDS011;23278;52.110;6.050;2022-08-03T01:08:38;4.13;;;0.80;;
37411;SDS011;23278;52.110;6.050;2022-08-03T01:11:09;8.45;;;0.90;;
37411;SDS011;23278;52.110;6.050;2022-08-03T01:19:24;1.55;;;0.40;;
37411;SDS011;23278;52.110;6.050;2022-08-03T01:30:33;3.05;;;0.90;;
37411;SDS011;23278;52.110;6.050;2022-08-03T01:33:04;3.53;;;0.60;;
37411;SDS011;23278;52.110;6.050;2022-08-03T01:35:57;4.95;;;1.05;;
37411;SDS011;23278;52.110;6.050;2022-08-03T01:38:28;2.95;;;0.70;;
37411;SDS011;23278;52.110;6.050;2022-08-03T01:41:02;1.90;;;0.50;;
37411;SDS011;23278;52.110;6.050;2022-08-03T01:43:31;6.47;;;0.70;;
37411;SDS011;23278;52.110;6.050;2022-08-03T01:45:59;3.28;;;0.70;;
37411;SDS011;23278;52.110;6.050;2022-08-03T01:48:27;1.92;;;0.80;;
37411;SDS011;23278;52.110;6.050;2022-08-03T01:50:54;5.57;;;0.90;;
37411;SDS011;23278;52.110;6.050;2022-08-03T01:53:21;3.25;;;0.98;;
37411;SDS011;23278;52.110;6.050;2022-08-03T01:55:48;4.15;;;0.90;;
37411;SDS011;23278;52.110;6.050;2022-08-03T01:58:19;4.05;;;0.60;;
37411;SDS011;23278;52.110;6.050;2022-08-03T02:00:48;9.45;;;1.02;;
37411;SDS011;23278;52.110;6.050;2022-08-03T02:03:15;4.00;;;0.98;;
37411;SDS011;23278;52.110;6.050;2022-08-03T02:05:44;4.55;;;0.90;;
37411;SDS011;23278;52.110;6.050;2022-08-03T02:08:12;2.45;;;0.93;;
37411;SDS011;23278;52.110;6.050;2022-08-03T02:10:40;1.35;;;0.70;;
37411;SDS011;23278;52.110;6.050;2022-08-03T02:13:07;3.50;;;1.20;;
37411;SDS011;23278;52.110;6.050;2022-08-03T02:15:35;2.38;;;0.63;;
37411;SDS011;23278;52.110;6.050;2022-08-03T02:18:04;1.45;;;0.45;;
37411;SDS011;23278;52.110;6.050;2022-08-03T02:20:32;2.22;;;0.70;;
37411;SDS011;23278;52.110;6.050;2022-08-03T02:23:00;2.33;;;0.60;;
37411;SDS011;23278;52.110;6.050;2022-08-03T02:25:26;2.85;;;0.70;;
37411;SDS011;23278;52.110;6.050;2022-08-03T02:27:55;2.00;;;0.50;;
37411;SDS011;23278;52.110;6.050;2022-08-03T02:30:39;1.23;;;0.50;;
37411;SDS011;23278;52.110;6.050;2022-08-03T02:33:09;1.17;;;0.55;;
37411;SDS011;23278;52.110;6.050;2022-08-03T02:35:41;1.33;;;0.47;;
37411;SDS011;23278;52.110;6.050;2022-08-03T02:38:09;2.30;;;0.60;;
37411;SDS011;23278;52.110;6.050;2022-08-03T02:40:36;1.50;;;0.70;;
37411;SDS011;23278;52.110;6.050;2022-08-03T02:43:06;4.28;;;1.08;;
37411;SDS011;23278;52.110;6.050;2022-08-03T02:45:35;4.93;;;0.50;;
37411;SDS011;23278;52.110;6.050;2022-08-03T02:48:08;1.77;;;0.60;;
37411;SDS011;23278;52.110;6.050;2022-08-03T02:50:35;3.80;;;0.55;;
37411;SDS011;23278;52.110;6.050;2022-08-03T02:53:02;1.23;;;0.70;;
37411;SDS011;23278;52.110;6.050;2022-08-03T02:55:29;3.17;;;1.02;;
37411;SDS011;23278;52.110;6.050;2022-08-03T02:57:59;2.47;;;0.50;;
37411;SDS011;23278;52.110;6.050;2022-08-03T03:00:26;1.45;;;0.60;;
37411;SDS011;23278;52.110;6.050;2022-08-03T03:02:55;2.15;;;0.40;;
37411;SDS011;23278;52.110;6.050;2022-08-03T03:05:23;1.20;;;0.50;;
37411;SDS011;23278;52.110;6.050;2022-08-03T03:07:49;1.48;;;0.43;;
37411;SDS011;23278;52.110;6.050;2022-08-03T03:10:16;1.38;;;0.70;;
37411;SDS011;23278;52.110;6.050;2022-08-03T03:12:42;1.10;;;0.40;;
37411;SDS011;23278;52.110;6.050;2022-08-03T03:15:11;2.30;;;0.50;;
37411;SDS011;23278;52.110;6.050;2022-08-03T03:17:36;2.20;;;0.75;;
37411;SDS011;23278;52.110;6.050;2022-08-03T03:20:04;3.78;;;0.90;;
37411;SDS011;23278;52.110;6.050;2022-08-03T03:22:32;1.35;;;0.50;;
37411;SDS011;23278;52.110;6.050;2022-08-03T03:24:58;3.13;;;0.50;;
37411;SDS011;23278;52.110;6.050;2022-08-03T03:27:25;4.15;;;0.60;;
37411;SDS011;23278;52.110;6.050;2022-08-03T03:29:51;6.10;;;1.17;;
37411;SDS011;23278;52.110;6.050;2022-08-03T03:32:18;2.22;;;0.80;;
37411;SDS011;23278;52.110;6.050;2022-08-03T03:34:44;2.50;;;0.70;;
37411;SDS011;23278;52.110;6.050;2022-08-03T03:37:10;4.03;;;0.70;;
37411;SDS011;23278;52.110;6.050;2022-08-03T03:39:36;5.10;;;1.33;;
37411;SDS011;23278;52.110;6.050;2022-08-03T03:42:02;1.35;;;0.80;;
37411;SDS011;23278;52.110;6.050;2022-08-03T03:44:29;4.28;;;1.23;;
37411;SDS011;23278;52.110;6.050;2022-08-03T03:46:56;4.05;;;0.90;;
37411;SDS011;23278;52.110;6.050;2022-08-03T03:49:23;7.28;;;1.13;;
37411;SDS011;23278;52.110;6.050;2022-08-03T03:51:51;3.67;;;0.80;;
37411;SDS011;23278;52.110;6.050;2022-08-03T03:54:19;3.42;;;0.95;;
37411;SDS011;23278;52.110;6.050;2022-08-03T03:56:45;2.53;;;0.73;;
37411;SDS011;23278;52.110;6.050;2022-08-03T03:59:12;6.05;;;1.35;;
37411;SDS011;23278;52.110;6.050;2022-08-03T04:01:38;6.97;;;0.80;;
37411;SDS011;23278;52.110;6.050;2022-08-03T04:04:04;3.38;;;0.60;;
37411;SDS011;23278;52.110;6.050;2022-08-03T04:06:48;3.47;;;1.02;;
37411;SDS011;23278;52.110;6.050;2022-08-03T04:09:34;1.63;;;0.80;;
37411;SDS011;23278;52.110;6.050;2022-08-03T04:12:21;2.65;;;0.65;;
37411;SDS011;23278;52.110;6.050;2022-08-03T04:14:49;1.90;;;0.65;;
37411;SDS011;23278;52.110;6.050;2022-08-03T04:17:19;2.45;;;0.95;;
37411;SDS011;23278;52.110;6.050;2022-08-03T04:19:48;3.45;;;0.98;;
37411;SDS011;23278;52.110;6.050;2022-08-03T04:22:17;2.42;;;0.80;;
37411;SDS011;23278;52.110;6.050;2022-08-03T04:24:52;2.47;;;1.13;;
37411;SDS011;23278;52.110;6.050;2022-08-03T04:27:24;2.65;;;0.82;;
37411;SDS011;23278;52.110;6.050;2022-08-03T04:29:53;2.88;;;0.85;;
37411;SDS011;23278;52.110;6.050;2022-08-03T04:32:21;3.20;;;0.90;;
37411;SDS011;23278;52.110;6.050;2022-08-03T04:34:50;2.63;;;1.25;;
37411;SDS011;23278;52.110;6.050;2022-08-03T04:37:18;2.10;;;1.05;;
37411;SDS011;23278;52.110;6.050;2022-08-03T04:39:54;7.10;;;1.48;;
37411;SDS011;23278;52.110;6.050;2022-08-03T04:42:22;3.10;;;1.50;;
37411;SDS011;23278;52.110;6.050;2022-08-03T04:44:50;5.93;;;1.65;;
37411;SDS011;23278;52.110;6.050;2022-08-03T04:47:17;4.82;;;1.20;;
37411;SDS011;23278;52.110;6.050;2022-08-03T04:49:45;6.50;;;1.38;;
37411;SDS011;23278;52.110;6.050;2022-08-03T04:52:11;5.70;;;1.35;;
37411;SDS011;23278;52.110;6.050;2022-08-03T04:54:38;6.55;;;2.40;;
37411;SDS011;23278;52.110;6.050;2022-08-03T04:57:05;5.97;;;1.50;;
37411;SDS011;23278;52.110;6.050;2022-08-03T04:59:31;5.97;;;1.48;;
37411;SDS011;23278;52.110;6.050;2022-08-03T05:01:57;2.85;;;1.25;;
37411;SDS011;23278;52.110;6.050;2022-08-03T05:04:23;5.88;;;1.98;;
37411;SDS011;23278;52.110;6.050;2022-08-03T05:06:49;2.47;;;1.35;;
37411;SDS011;23278;52.110;6.050;2022-08-03T05:09:15;4.63;;;1.25;;
37411;SDS011;23278;52.110;6.050;2022-08-03T05:11:40;2.22;;;1.00;;
37411;SDS011;23278;52.110;6.050;2022-08-03T05:14:06;3.72;;;1.23;;
37411;SDS011;23278;52.110;6.050;2022-08-03T05:16:32;5.70;;;2.13;;
37411;SDS011;23278;52.110;6.050;2022-08-03T05:18:58;10.52;;;2.05;;
37411;SDS011;23278;52.110;6.050;2022-08-03T05:21:24;6.28;;;2.20;;
37411;SDS011;23278;52.110;6.050;2022-08-03T05:23:50;7.68;;;1.80;;
37411;SDS011;23278;52.110;6.050;2022-08-03T05:26:15;9.32;;;2.22;;
37411;SDS011;23278;52.110;6.050;2022-08-03T05:28:41;8.73;;;2.75;;
37411;SDS011;23278;52.110;6.050;2022-08-03T05:31:07;14.38;;;2.38;;
37411;SDS011;23278;52.110;6.050;2022-08-03T05:33:33;7.45;;;2.67;;
37411;SDS011;23278;52.110;6.050;2022-08-03T05:35:59;5.38;;;1.50;;
37411;SDS011;23278;52.110;6.050;2022-08-03T05:38:25;7.13;;;1.88;;
37411;SDS011;23278;52.110;6.050;2022-08-03T05:40:51;4.85;;;1.40;;
37411;SDS011;23278;52.110;6.050;2022-08-03T05:43:17;5.13;;;1.58;;
37411;SDS011;23278;52.110;6.050;2022-08-03T05:45:43;9.23;;;2.33;;
37411;SDS011;23278;52.110;6.050;2022-08-03T05:48:09;9.30;;;1.95;;
37411;SDS011;23278;52.110;6.050;2022-08-03T05:50:35;6.97;;;1.52;;
37411;SDS011;23278;52.110;6.050;2022-08-03T05:53:01;4.00;;;1.27;;
37411;SDS011;23278;52.110;6.050;2022-08-03T05:55:27;6.97;;;2.55;;
37411;SDS011;23278;52.110;6.050;2022-08-03T05:57:53;5.53;;;1.60;;
37411;SDS011;23278;52.110;6.050;2022-08-03T06:00:19;10.82;;;1.63;;
37411;SDS011;23278;52.110;6.050;2022-08-03T06:02:45;5.35;;;1.48;;
37411;SDS011;23278;52.110;6.050;2022-08-03T06:05:10;8.48;;;1.20;;
37411;SDS011;23278;52.110;6.050;2022-08-03T06:07:37;5.07;;;1.00;;
37411;SDS011;23278;52.110;6.050;2022-08-03T06:10:03;6.78;;;1.20;;
37411;SDS011;23278;52.110;6.050;2022-08-03T06:12:29;7.57;;;1.38;;
37411;SDS011;23278;52.110;6.050;2022-08-03T06:14:55;6.75;;;1.83;;
37411;SDS011;23278;52.110;6.050;2022-08-03T06:17:21;9.30;;;1.70;;
37411;SDS011;23278;52.110;6.050;2022-08-03T06:19:47;7.00;;;1.40;;
37411;SDS011;23278;52.110;6.050;2022-08-03T06:22:16;5.65;;;0.70;;
37411;SDS011;23278;52.110;6.050;2022-08-03T06:24:41;6.30;;;1.55;;
37411;SDS011;23278;52.110;6.050;2022-08-03T06:27:08;9.23;;;2.17;;
37411;SDS011;23278;52.110;6.050;2022-08-03T06:29:36;5.47;;;1.05;;
37411;SDS011;23278;52.110;6.050;2022-08-03T06:32:02;7.57;;;1.10;;
37411;SDS011;23278;52.110;6.050;2022-08-03T06:34:28;12.75;;;1.73;;
37411;SDS011;23278;52.110;6.050;2022-08-03T06:36:54;9.20;;;1.55;;
37411;SDS011;23278;52.110;6.050;2022-08-03T06:39:20;9.00;;;1.92;;
37411;SDS011;23278;52.110;6.050;2022-08-03T06:41:46;9.90;;;1.65;;
37411;SDS011;23278;52.110;6.050;2022-08-03T06:44:12;5.68;;;1.33;;
37411;SDS011;23278;52.110;6.050;2022-08-03T06:46:38;12.10;;;1.90;;
37411;SDS011;23278;52.110;6.050;2022-08-03T06:49:05;4.60;;;1.48;;
37411;SDS011;23278;52.110;6.050;2022-08-03T06:51:31;4.90;;;1.45;;
37411;SDS011;23278;52.110;6.050;2022-08-03T06:53:57;7.15;;;1.10;;
37411;SDS011;23278;52.110;6.050;2022-08-03T06:56:23;8.48;;;2.28;;
37411;SDS011;23278;52.110;6.050;2022-08-03T06:58:49;9.70;;;1.30;;
37411;SDS011;23278;52.110;6.050;2022-08-03T07:01:15;6.53;;;1.20;;
37411;SDS011;23278;52.110;6.050;2022-08-03T07:03:40;11.35;;;1.40;;
37411;SDS011;23278;52.110;6.050;2022-08-03T07:06:06;3.70;;;1.38;;
37411;SDS011;23278;52.110;6.050;2022-08-03T07:08:32;8.30;;;1.48;;
37411;SDS011;23278;52.110;6.050;2022-08-03T07:10:58;6.20;;;1.65;;
37411;SDS011;23278;52.110;6.050;2022-08-03T07:13:24;9.75;;;2.08;;
37411;SDS011;23278;52.110;6.050;2022-08-03T07:15:50;7.10;;;1.48;;
37411;SDS011;23278;52.110;6.050;2022-08-03T07:18:15;12.07;;;1.52;;
37411;SDS011;23278;52.110;6.050;2022-08-03T07:20:41;5.88;;;1.33;;
37411;SDS011;23278;52.110;6.050;2022-08-03T07:23:07;9.80;;;2.17;;
37411;SDS011;23278;52.110;6.050;2022-08-03T07:25:34;11.20;;;1.80;;
37411;SDS011;23278;52.110;6.050;2022-08-03T07:28:00;13.05;;;2.42;;
37411;SDS011;23278;52.110;6.050;2022-08-03T07:30:26;8.95;;;1.50;;
37411;SDS011;23278;52.110;6.050;2022-08-03T07:32:52;7.20;;;1.50;;
37411;SDS011;23278;52.110;6.050;2022-08-03T07:35:17;10.20;;;2.28;;
37411;SDS011;23278;52.110;6.050;2022-08-03T07:37:43;10.27;;;1.80;;
37411;SDS011;23278;52.110;6.050;2022-08-03T07:40:09;5.35;;;1.10;;
37411;SDS011;23278;52.110;6.050;2022-08-03T07:42:35;10.80;;;1.80;;
37411;SDS011;23278;52.110;6.050;2022-08-03T07:45:01;8.90;;;2.13;;
37411;SDS011;23278;52.110;6.050;2022-08-03T07:47:28;6.60;;;1.63;;
37411;SDS011;23278;52.110;6.050;2022-08-03T07:49:55;8.35;;;1.40;;
37411;SDS011;23278;52.110;6.050;2022-08-03T07:52:22;6.90;;;1.75;;
37411;SDS011;23278;52.110;6.050;2022-08-03T07:55:06;7.30;;;1.17;;
37411;SDS011;23278;52.110;6.050;2022-08-03T07:57:33;9.35;;;1.67;;
37411;SDS011;23278;52.110;6.050;2022-08-03T07:59:59;9.57;;;1.67;;
37411;SDS011;23278;52.110;6.050;2022-08-03T08:02:25;8.85;;;1.13;;
37411;SDS011;23278;52.110;6.050;2022-08-03T08:04:51;7.68;;;1.73;;
37411;SDS011;23278;52.110;6.050;2022-08-03T08:07:17;9.55;;;2.50;;
37411;SDS011;23278;52.110;6.050;2022-08-03T08:09:43;9.02;;;1.70;;
37411;SDS011;23278;52.110;6.050;2022-08-03T08:12:09;11.27;;;1.40;;
37411;SDS011;23278;52.110;6.050;2022-08-03T08:14:36;10.63;;;1.17;;
37411;SDS011;23278;52.110;6.050;2022-08-03T08:17:03;10.90;;;1.45;;
37411;SDS011;23278;52.110;6.050;2022-08-03T08:19:29;8.98;;;1.67;;
37411;SDS011;23278;52.110;6.050;2022-08-03T08:21:55;10.35;;;2.47;;
37411;SDS011;23278;52.110;6.050;2022-08-03T08:24:21;15.60;;;1.27;;
37411;SDS011;23278;52.110;6.050;2022-08-03T08:26:48;6.18;;;1.00;;
37411;SDS011;23278;52.110;6.050;2022-08-03T08:29:14;6.53;;;1.42;;
37411;SDS011;23278;52.110;6.050;2022-08-03T08:31:40;13.75;;;1.55;;
37411;SDS011;23278;52.110;6.050;2022-08-03T08:34:06;10.00;;;1.73;;
37411;SDS011;23278;52.110;6.050;2022-08-03T08:36:32;14.38;;;3.00;;
37411;SDS011;23278;52.110;6.050;2022-08-03T08:38:59;10.35;;;2.17;;
37411;SDS011;23278;52.110;6.050;2022-08-03T08:41:25;11.40;;;1.35;;
37411;SDS011;23278;52.110;6.050;2022-08-03T08:43:52;7.80;;;1.50;;
37411;SDS011;23278;52.110;6.050;2022-08-03T08:46:19;8.75;;;1.85;;
37411;SDS011;23278;52.110;6.050;2022-08-03T08:48:47;8.90;;;1.45;;
37411;SDS011;23278;52.110;6.050;2022-08-03T08:51:15;5.65;;;1.23;;
37411;SDS011;23278;52.110;6.050;2022-08-03T08:53:44;13.55;;;1.75;;
37411;SDS011;23278;52.110;6.050;2022-08-03T08:56:15;8.23;;;1.42;;
37411;SDS011;23278;52.110;6.050;2022-08-03T08:58:54;10.15;;;1.70;;
37411;SDS011;23278;52.110;6.050;2022-08-03T09:01:24;16.48;;;2.10;;
37411;SDS011;23278;52.110;6.050;2022-08-03T09:03:51;11.52;;;1.42;;
37411;SDS011;23278;52.110;6.050;2022-08-03T09:06:19;12.85;;;1.92;;
37411;SDS011;23278;52.110;6.050;2022-08-03T09:08:45;19.88;;;2.92;;
37411;SDS011;23278;52.110;6.050;2022-08-03T09:11:11;14.82;;;3.80;;
37411;SDS011;23278;52.110;6.050;2022-08-03T09:13:37;12.20;;;2.13;;
37411;SDS011;23278;52.110;6.050;2022-08-03T09:16:13;14.50;;;1.92;;
37411;SDS011;23278;52.110;6.050;2022-08-03T09:18:45;11.27;;;1.05;;
37411;SDS011;23278;52.110;6.050;2022-08-03T09:21:13;6.53;;;1.15;;
37411;SDS011;23278;52.110;6.050;2022-08-03T09:23:51;14.98;;;2.17;;
37411;SDS011;23278;52.110;6.050;2022-08-03T09:26:19;18.85;;;2.90;;
37411;SDS011;23278;52.110;6.050;2022-08-03T09:31:33;7.43;;;1.50;;
37411;SDS011;23278;52.110;6.050;2022-08-03T09:34:10;13.57;;;2.50;;
37411;SDS011;23278;52.110;6.050;2022-08-03T09:36:48;14.23;;;2.13;;
37411;SDS011;23278;52.110;6.050;2022-08-03T09:39:15;16.63;;;2.58;;
37411;SDS011;23278;52.110;6.050;2022-08-03T09:41:45;14.93;;;1.75;;
37411;SDS011;23278;52.110;6.050;2022-08-03T09:44:13;16.83;;;3.20;;
37411;SDS011;23278;52.110;6.050;2022-08-03T09:46:48;15.07;;;3.25;;
37411;SDS011;23278;52.110;6.050;2022-08-03T09:49:20;15.18;;;3.00;;
37411;SDS011;23278;52.110;6.050;2022-08-03T09:51:47;14.45;;;2.25;;
37411;SDS011;23278;52.110;6.050;2022-08-03T09:54:30;10.55;;;1.65;;
37411;SDS011;23278;52.110;6.050;2022-08-03T09:56:56;12.82;;;2.80;;
37411;SDS011;23278;52.110;6.050;2022-08-03T09:59:24;17.60;;;2.97;;
37411;SDS011;23278;52.110;6.050;2022-08-03T10:01:51;14.80;;;2.85;;
37411;SDS011;23278;52.110;6.050;2022-08-03T10:04:17;19.83;;;3.15;;
37411;SDS011;23278;52.110;6.050;2022-08-03T10:06:44;15.07;;;2.85;;
37411;SDS011;23278;52.110;6.050;2022-08-03T10:09:14;17.17;;;2.40;;
37411;SDS011;23278;52.110;6.050;2022-08-03T10:11:41;17.13;;;2.80;;
37411;SDS011;23278;52.110;6.050;2022-08-03T10:14:08;11.13;;;2.63;;
37411;SDS011;23278;52.110;6.050;2022-08-03T10:16:36;14.90;;;1.60;;
37411;SDS011;23278;52.110;6.050;2022-08-03T10:19:04;13.27;;;2.33;;
37411;SDS011;23278;52.110;6.050;2022-08-03T10:21:32;9.50;;;2.17;;
37411;SDS011;23278;52.110;6.050;2022-08-03T10:24:03;24.15;;;2.22;;
37411;SDS011;23278;52.110;6.050;2022-08-03T10:26:34;12.05;;;1.85;;
37411;SDS011;23278;52.110;6.050;2022-08-03T10:29:02;11.57;;;2.38;;
37411;SDS011;23278;52.110;6.050;2022-08-03T10:31:34;12.45;;;2.95;;
37411;SDS011;23278;52.110;6.050;2022-08-03T10:34:10;15.85;;;2.72;;
37411;SDS011;23278;52.110;6.050;2022-08-03T10:36:43;15.63;;;3.17;;
37411;SDS011;23278;52.110;6.050;2022-08-03T10:39:10;12.07;;;1.98;;
37411;SDS011;23278;52.110;6.050;2022-08-03T10:41:39;11.40;;;2.38;;
37411;SDS011;23278;52.110;6.050;2022-08-03T10:44:09;9.30;;;2.28;;
37411;SDS011;23278;52.110;6.050;2022-08-03T10:46:39;10.75;;;1.98;;
37411;SDS011;23278;52.110;6.050;2022-08-03T10:49:07;12.10;;;2.60;;
37411;SDS011;23278;52.110;6.050;2022-08-03T10:51:36;14.15;;;2.70;;
37411;SDS011;23278;52.110;6.050;2022-08-03T10:54:03;13.23;;;2.28;;
37411;SDS011;23278;52.110;6.050;2022-08-03T10:59:17;15.93;;;2.65;;
37411;SDS011;23278;52.110;6.050;2022-08-03T11:02:01;13.95;;;2.35;;
37411;SDS011;23278;52.110;6.050;2022-08-03T11:04:28;7.88;;;1.70;;
37411;SDS011;23278;52.110;6.050;2022-08-03T11:09:42;11.93;;;1.98;;
37411;SDS011;23278;52.110;6.050;2022-08-03T11:12:28;13.30;;;2.65;;
37411;SDS011;23278;52.110;6.050;2022-08-03T11:14:57;13.10;;;2.35;;
37411;SDS011;23278;52.110;6.050;2022-08-03T11:17:29;18.80;;;2.28;;
37411;SDS011;23278;52.110;6.050;2022-08-03T11:19:57;8.43;;;1.77;;
37411;SDS011;23278;52.110;6.050;2022-08-03T11:22:23;6.65;;;1.45;;
37411;SDS011;23278;52.110;6.050;2022-08-03T11:32:50;9.77;;;2.00;;
37411;SDS011;23278;52.110;6.050;2022-08-03T11:35:25;6.80;;;1.35;;
37411;SDS011;23278;52.110;6.050;2022-08-03T11:46:07;4.85;;;1.33;;
37411;SDS011;23278;52.110;6.050;2022-08-03T11:48:42;10.50;;;1.98;;
37411;SDS011;23278;52.110;6.050;2022-08-03T11:51:23;11.27;;;2.03;;
37411;SDS011;23278;52.110;6.050;2022-08-03T11:53:59;8.25;;;2.03;;
37411;SDS011;23278;52.110;6.050;2022-08-03T11:56:28;10.00;;;2.00;;
37411;SDS011;23278;52.110;6.050;2022-08-03T12:01:33;8.40;;;1.58;;
37411;SDS011;23278;52.110;6.050;2022-08-03T12:04:02;6.82;;;1.48;;
37411;SDS011;23278;52.110;6.050;2022-08-03T12:06:29;7.88;;;1.65;;
37411;SDS011;23278;52.110;6.050;2022-08-03T12:08:55;8.90;;;1.52;;
37411;SDS011;23278;52.110;6.050;2022-08-03T12:11:20;12.00;;;1.70;;
37411;SDS011;23278;52.110;6.050;2022-08-03T12:13:48;10.55;;;1.95;;
37411;SDS011;23278;52.110;6.050;2022-08-03T12:16:22;7.10;;;1.85;;
37411;SDS011;23278;52.110;6.050;2022-08-03T12:18:59;7.80;;;1.77;;
37411;SDS011;23278;52.110;6.050;2022-08-03T12:21:27;4.55;;;1.13;;
37411;SDS011;23278;52.110;6.050;2022-08-03T12:23:57;5.03;;;1.58;;
37411;SDS011;23278;52.110;6.050;2022-08-03T12:26:25;12.75;;;1.23;;
37411;SDS011;23278;52.110;6.050;2022-08-03T12:28:51;9.88;;;2.00;;
37411;SDS011;23278;52.110;6.050;2022-08-03T12:31:17;10.38;;;1.52;;
37411;SDS011;23278;52.110;6.050;2022-08-03T12:34:00;8.00;;;1.35;;
37411;SDS011;23278;52.110;6.050;2022-08-03T12:36:28;8.10;;;1.55;;
37411;SDS011;23278;52.110;6.050;2022-08-03T12:38:56;6.25;;;1.60;;
37411;SDS011;23278;52.110;6.050;2022-08-03T12:41:31;11.02;;;1.98;;
37411;SDS011;23278;52.110;6.050;2022-08-03T12:44:06;7.55;;;2.63;;
37411;SDS011;23278;52.110;6.050;2022-08-03T12:46:33;8.85;;;2.00;;
37411;SDS011;23278;52.110;6.050;2022-08-03T12:54:08;9.25;;;1.80;;
37411;SDS011;23278;52.110;6.050;2022-08-03T12:59:28;13.98;;;1.77;;
37411;SDS011;23278;52.110;6.050;2022-08-03T13:02:19;7.60;;;1.92;;
37411;SDS011;23278;52.110;6.050;2022-08-03T13:04:46;6.45;;;1.45;;
37411;SDS011;23278;52.110;6.050;2022-08-03T13:07:14;5.95;;;1.50;;
37411;SDS011;23278;52.110;6.050;2022-08-03T13:09:42;9.77;;;1.35;;
37411;SDS011;23278;52.110;6.050;2022-08-03T13:14:43;6.82;;;1.58;;
37411;SDS011;23278;52.110;6.050;2022-08-03T13:17:11;4.90;;;1.27;;
37411;SDS011;23278;52.110;6.050;2022-08-03T13:19:37;7.35;;;1.35;;
37411;SDS011;23278;52.110;6.050;2022-08-03T13:22:14;4.28;;;1.00;;
37411;SDS011;23278;52.110;6.050;2022-08-03T13:24:46;8.32;;;1.83;;
37411;SDS011;23278;52.110;6.050;2022-08-03T13:27:14;5.93;;;1.27;;
37411;SDS011;23278;52.110;6.050;2022-08-03T13:29:40;7.13;;;1.50;;
37411;SDS011;23278;52.110;6.050;2022-08-03T13:34:36;6.35;;;0.90;;
37411;SDS011;23278;52.110;6.050;2022-08-03T13:37:02;7.45;;;1.10;;
37411;SDS011;23278;52.110;6.050;2022-08-03T13:39:28;7.60;;;1.50;;
37411;SDS011;23278;52.110;6.050;2022-08-03T13:41:54;5.30;;;1.08;;
37411;SDS011;23278;52.110;6.050;2022-08-03T13:44:20;3.75;;;0.73;;
37411;SDS011;23278;52.110;6.050;2022-08-03T13:46:46;3.25;;;1.02;;
37411;SDS011;23278;52.110;6.050;2022-08-03T13:49:13;4.72;;;0.93;;
37411;SDS011;23278;52.110;6.050;2022-08-03T13:51:39;3.78;;;0.90;;
37411;SDS011;23278;52.110;6.050;2022-08-03T13:54:05;5.47;;;0.85;;
37411;SDS011;23278;52.110;6.050;2022-08-03T13:56:31;3.50;;;0.88;;
37411;SDS011;23278;52.110;6.050;2022-08-03T13:58:57;3.70;;;0.70;;
37411;SDS011;23278;52.110;6.050;2022-08-03T14:01:24;3.22;;;0.90;;
37411;SDS011;23278;52.110;6.050;2022-08-03T14:03:50;4.05;;;0.70;;
37411;SDS011;23278;52.110;6.050;2022-08-03T14:06:19;4.75;;;1.10;;
37411;SDS011;23278;52.110;6.050;2022-08-03T14:08:45;3.70;;;1.10;;
37411;SDS011;23278;52.110;6.050;2022-08-03T14:11:12;3.97;;;0.55;;
37411;SDS011;23278;52.110;6.050;2022-08-03T14:13:39;2.25;;;0.63;;
37411;SDS011;23278;52.110;6.050;2022-08-03T14:16:05;3.33;;;0.57;;
37411;SDS011;23278;52.110;6.050;2022-08-03T14:18:31;6.68;;;0.82;;
37411;SDS011;23278;52.110;6.050;2022-08-03T14:20:57;3.05;;;0.70;;
37411;SDS011;23278;52.110;6.050;2022-08-03T14:23:24;1.27;;;0.45;;
37411;SDS011;23278;52.110;6.050;2022-08-03T14:25:51;3.30;;;0.80;;
37411;SDS011;23278;52.110;6.050;2022-08-03T14:28:17;2.53;;;0.60;;
37411;SDS011;23278;52.110;6.050;2022-08-03T14:30:43;3.60;;;0.70;;
37411;SDS011;23278;52.110;6.050;2022-08-03T14:33:09;3.42;;;0.60;;
37411;SDS011;23278;52.110;6.050;2022-08-03T14:35:35;3.58;;;0.55;;
37411;SDS011;23278;52.110;6.050;2022-08-03T14:38:01;3.65;;;0.77;;
37411;SDS011;23278;52.110;6.050;2022-08-03T14:40:27;2.53;;;0.95;;
37411;SDS011;23278;52.110;6.050;2022-08-03T14:42:53;1.80;;;0.60;;
37411;SDS011;23278;52.110;6.050;2022-08-03T14:45:19;2.70;;;0.63;;
37411;SDS011;23278;52.110;6.050;2022-08-03T14:47:45;2.35;;;0.55;;
37411;SDS011;23278;52.110;6.050;2022-08-03T14:50:11;3.10;;;0.60;;
37411;SDS011;23278;52.110;6.050;2022-08-03T14:52:37;1.23;;;0.40;;
37411;SDS011;23278;52.110;6.050;2022-08-03T14:55:02;2.05;;;0.50;;
37411;SDS011;23278;52.110;6.050;2022-08-03T14:57:28;3.50;;;0.93;;
37411;SDS011;23278;52.110;6.050;2022-08-03T14:59:54;1.25;;;0.40;;
37411;SDS011;23278;52.110;6.050;2022-08-03T15:02:20;2.03;;;0.68;;
37411;SDS011;23278;52.110;6.050;2022-08-03T15:04:46;4.00;;;0.70;;
37411;SDS011;23278;52.110;6.050;2022-08-03T15:07:13;3.85;;;0.60;;
37411;SDS011;23278;52.110;6.050;2022-08-03T15:09:39;2.70;;;0.52;;
37411;SDS011;23278;52.110;6.050;2022-08-03T15:12:05;2.05;;;0.60;;
37411;SDS011;23278;52.110;6.050;2022-08-03T15:14:31;1.77;;;0.50;;
37411;SDS011;23278;52.110;6.050;2022-08-03T15:16:57;3.60;;;0.40;;
37411;SDS011;23278;52.110;6.050;2022-08-03T15:19:23;3.05;;;0.40;;
37411;SDS011;23278;52.110;6.050;2022-08-03T15:21:49;2.92;;;0.50;;
37411;SDS011;23278;52.110;6.050;2022-08-03T15:24:15;2.72;;;0.60;;
37411;SDS011;23278;52.110;6.050;2022-08-03T15:26:41;1.25;;;0.43;;
37411;SDS011;23278;52.110;6.050;2022-08-03T15:29:07;2.47;;;0.75;;
37411;SDS011;23278;52.110;6.050;2022-08-03T15:31:33;2.20;;;0.40;;
37411;SDS011;23278;52.110;6.050;2022-08-03T15:33:59;3.03;;;0.50;;
37411;SDS011;23278;52.110;6.050;2022-08-03T15:36:25;3.05;;;0.70;;
37411;SDS011;23278;52.110;6.050;2022-08-03T15:38:51;2.03;;;0.65;;
37411;SDS011;23278;52.110;6.050;2022-08-03T15:41:17;3.00;;;0.50;;
37411;SDS011;23278;52.110;6.050;2022-08-03T15:43:44;1.77;;;0.63;;
37411;SDS011;23278;52.110;6.050;2022-08-03T15:46:11;1.98;;;0.50;;